sensor_id;sensor_type;location;lat;lon;timestamp;P1;durP1;ratioP1;P2;durP2;ratioP2
51949;SDS011;37974;53.218;6.640;2022-11-24T00:34:25;30.60;;;12.40;;
51949;SDS011;37974;53.218;6.640;2022-11-24T00:38:05;33.03;;;11.93;;
51949;SDS011;37974;53.218;6.640;2022-11-24T00:44:35;34.30;;;11.63;;
51949;SDS011;37974;53.218;6.640;2022-11-24T00:51:19;33.58;;;11.20;;
51949;SDS011;37974;53.218;6.640;2022-11-24T01:01:30;24.15;;;9.77;;
51949;SDS011;37974;53.218;6.640;2022-11-24T01:04:33;26.60;;;10.88;;
51949;SDS011;37974;53.218;6.640;2022-11-24T01:11:05;32.65;;;9.95;;
51949;SDS011;37974;53.218;6.640;2022-11-24T01:14:45;34.55;;;10.63;;
51949;SDS011;37974;53.218;6.640;2022-11-24T01:17:26;34.72;;;10.02;;
51949;SDS011;37974;53.218;6.640;2022-11-24T01:20:46;29.75;;;8.95;;
51949;SDS011;37974;53.218;6.640;2022-11-24T01:33:39;30.15;;;8.95;;
51949;SDS011;37974;53.218;6.640;2022-11-24T01:37:00;37.13;;;9.75;;
51949;SDS011;37974;53.218;6.640;2022-11-24T01:40:12;33.63;;;8.48;;
51949;SDS011;37974;53.218;6.640;2022-11-24T01:43:36;30.52;;;9.30;;
51949;SDS011;37974;53.218;6.640;2022-11-24T01:46:37;26.95;;;8.52;;
51949;SDS011;37974;53.218;6.640;2022-11-24T01:57:29;26.90;;;7.85;;
51949;SDS011;37974;53.218;6.640;2022-11-24T02:00:37;36.47;;;8.82;;
51949;SDS011;37974;53.218;6.640;2022-11-24T02:03:46;40.20;;;9.00;;
51949;SDS011;37974;53.218;6.640;2022-11-24T02:06:41;36.17;;;8.50;;
51949;SDS011;37974;53.218;6.640;2022-11-24T02:46:41;33.30;;;6.05;;
51949;SDS011;37974;53.218;6.640;2022-11-24T02:50:17;31.63;;;5.65;;
51949;SDS011;37974;53.218;6.640;2022-11-24T02:53:57;31.42;;;6.20;;
51949;SDS011;37974;53.218;6.640;2022-11-24T02:56:50;42.33;;;6.32;;
51949;SDS011;37974;53.218;6.640;2022-11-24T03:07:03;22.63;;;5.82;;
51949;SDS011;37974;53.218;6.640;2022-11-24T03:10:26;31.38;;;5.13;;
51949;SDS011;37974;53.218;6.640;2022-11-24T03:13:40;33.88;;;7.25;;
51949;SDS011;37974;53.218;6.640;2022-11-24T03:17:07;36.05;;;5.72;;
51949;SDS011;37974;53.218;6.640;2022-11-24T03:20:47;32.60;;;5.93;;
51949;SDS011;37974;53.218;6.640;2022-11-24T03:27:54;27.63;;;5.28;;
51949;SDS011;37974;53.218;6.640;2022-11-24T03:35:02;34.05;;;6.53;;
51949;SDS011;37974;53.218;6.640;2022-11-24T03:44:57;26.35;;;5.35;;
51949;SDS011;37974;53.218;6.640;2022-11-24T03:47:52;42.13;;;6.32;;
51949;SDS011;37974;53.218;6.640;2022-11-24T03:51:01;26.05;;;4.53;;
51949;SDS011;37974;53.218;6.640;2022-11-24T03:53:50;29.48;;;5.20;;
51949;SDS011;37974;53.218;6.640;2022-11-24T03:56:19;36.08;;;6.18;;
51949;SDS011;37974;53.218;6.640;2022-11-24T04:02:12;30.95;;;5.15;;
51949;SDS011;37974;53.218;6.640;2022-11-24T04:05:17;31.23;;;5.00;;
51949;SDS011;37974;53.218;6.640;2022-11-24T04:12:03;33.45;;;4.88;;
51949;SDS011;37974;53.218;6.640;2022-11-24T04:18:25;28.85;;;4.53;;
51949;SDS011;37974;53.218;6.640;2022-11-24T04:28:18;26.13;;;4.20;;
51949;SDS011;37974;53.218;6.640;2022-11-24T04:35:15;34.83;;;5.00;;
51949;SDS011;37974;53.218;6.640;2022-11-24T04:38:10;32.55;;;5.93;;
51949;SDS011;37974;53.218;6.640;2022-11-24T04:47:48;30.20;;;4.47;;
51949;SDS011;37974;53.218;6.640;2022-11-24T04:57:38;32.50;;;5.00;;
51949;SDS011;37974;53.218;6.640;2022-11-24T05:00:37;23.02;;;4.25;;
51949;SDS011;37974;53.218;6.640;2022-11-24T05:03:59;28.30;;;4.47;;
51949;SDS011;37974;53.218;6.640;2022-11-24T05:07:00;27.40;;;4.32;;
51949;SDS011;37974;53.218;6.640;2022-11-24T05:09:31;22.88;;;4.65;;
51949;SDS011;37974;53.218;6.640;2022-11-24T05:12:09;21.48;;;4.47;;
51949;SDS011;37974;53.218;6.640;2022-11-24T05:14:51;22.48;;;4.28;;
51949;SDS011;37974;53.218;6.640;2022-11-24T05:17:33;25.50;;;4.03;;
51949;SDS011;37974;53.218;6.640;2022-11-24T05:20:24;30.52;;;4.70;;
51949;SDS011;37974;53.218;6.640;2022-11-24T05:23:33;29.42;;;4.32;;
51949;SDS011;37974;53.218;6.640;2022-11-24T05:33:30;33.20;;;4.40;;
51949;SDS011;37974;53.218;6.640;2022-11-24T05:36:19;23.60;;;3.70;;
51949;SDS011;37974;53.218;6.640;2022-11-24T05:43:11;26.23;;;4.47;;
51949;SDS011;37974;53.218;6.640;2022-11-24T05:46:41;23.55;;;3.80;;
51949;SDS011;37974;53.218;6.640;2022-11-24T05:53:19;30.77;;;4.70;;
51949;SDS011;37974;53.218;6.640;2022-11-24T05:56:15;22.13;;;4.80;;
51949;SDS011;37974;53.218;6.640;2022-11-24T05:59:04;26.58;;;3.50;;
51949;SDS011;37974;53.218;6.640;2022-11-24T06:01:30;33.90;;;4.80;;
51949;SDS011;37974;53.218;6.640;2022-11-24T06:03:55;26.20;;;4.05;;
51949;SDS011;37974;53.218;6.640;2022-11-24T06:06:24;23.45;;;4.38;;
51949;SDS011;37974;53.218;6.640;2022-11-24T06:09:43;23.80;;;3.92;;
51949;SDS011;37974;53.218;6.640;2022-11-24T06:13:21;28.45;;;4.25;;
51949;SDS011;37974;53.218;6.640;2022-11-24T06:16:12;31.05;;;4.43;;
51949;SDS011;37974;53.218;6.640;2022-11-24T06:19:58;28.67;;;5.47;;
51949;SDS011;37974;53.218;6.640;2022-11-24T06:22:49;30.23;;;4.53;;
51949;SDS011;37974;53.218;6.640;2022-11-24T06:29:27;27.00;;;4.43;;
51949;SDS011;37974;53.218;6.640;2022-11-24T06:32:42;33.53;;;4.13;;
51949;SDS011;37974;53.218;6.640;2022-11-24T06:35:12;26.58;;;3.75;;
51949;SDS011;37974;53.218;6.640;2022-11-24T06:37:41;21.02;;;4.35;;
51949;SDS011;37974;53.218;6.640;2022-11-24T06:40:56;27.58;;;5.03;;
51949;SDS011;37974;53.218;6.640;2022-11-24T06:47:32;23.45;;;3.85;;
51949;SDS011;37974;53.218;6.640;2022-11-24T06:51:09;16.50;;;3.20;;
51949;SDS011;37974;53.218;6.640;2022-11-24T06:54:17;26.95;;;4.15;;
51949;SDS011;37974;53.218;6.640;2022-11-24T06:57:23;26.25;;;3.30;;
51949;SDS011;37974;53.218;6.640;2022-11-24T07:00:51;25.95;;;4.90;;
51949;SDS011;37974;53.218;6.640;2022-11-24T07:03:56;25.27;;;4.47;;
51949;SDS011;37974;53.218;6.640;2022-11-24T07:06:57;25.77;;;3.88;;
51949;SDS011;37974;53.218;6.640;2022-11-24T07:16:10;29.10;;;4.00;;
51949;SDS011;37974;53.218;6.640;2022-11-24T07:19:20;20.75;;;3.90;;
51949;SDS011;37974;53.218;6.640;2022-11-24T07:25:13;25.98;;;5.10;;
51949;SDS011;37974;53.218;6.640;2022-11-24T07:27:44;25.23;;;4.40;;
51949;SDS011;37974;53.218;6.640;2022-11-24T07:30:55;28.13;;;4.80;;
51949;SDS011;37974;53.218;6.640;2022-11-24T07:33:49;19.05;;;3.75;;
51949;SDS011;37974;53.218;6.640;2022-11-24T07:39:26;19.15;;;4.18;;
51949;SDS011;37974;53.218;6.640;2022-11-24T07:41:54;23.48;;;5.13;;
51949;SDS011;37974;53.218;6.640;2022-11-24T07:44:52;26.88;;;4.53;;
51949;SDS011;37974;53.218;6.640;2022-11-24T07:47:54;34.95;;;3.88;;
51949;SDS011;37974;53.218;6.640;2022-11-24T07:51:03;26.80;;;4.03;;
51949;SDS011;37974;53.218;6.640;2022-11-24T07:53:38;23.33;;;4.60;;
51949;SDS011;37974;53.218;6.640;2022-11-24T07:59:31;24.50;;;4.95;;
51949;SDS011;37974;53.218;6.640;2022-11-24T08:02:23;23.77;;;3.63;;
51949;SDS011;37974;53.218;6.640;2022-11-24T08:04:52;30.42;;;4.47;;
51949;SDS011;37974;53.218;6.640;2022-11-24T08:08:19;28.08;;;5.47;;
51949;SDS011;37974;53.218;6.640;2022-11-24T08:14:10;24.77;;;4.47;;
51949;SDS011;37974;53.218;6.640;2022-11-24T08:21:02;28.70;;;5.65;;
51949;SDS011;37974;53.218;6.640;2022-11-24T08:23:34;27.88;;;4.68;;
51949;SDS011;37974;53.218;6.640;2022-11-24T08:26:13;25.85;;;5.57;;
51949;SDS011;37974;53.218;6.640;2022-11-24T08:29:00;25.77;;;5.03;;
51949;SDS011;37974;53.218;6.640;2022-11-24T08:39:04;22.02;;;4.95;;
51949;SDS011;37974;53.218;6.640;2022-11-24T08:52:42;30.83;;;5.85;;
51949;SDS011;37974;53.218;6.640;2022-11-24T08:55:13;30.05;;;6.07;;
51949;SDS011;37974;53.218;6.640;2022-11-24T09:04:12;17.38;;;5.03;;
51949;SDS011;37974;53.218;6.640;2022-11-24T09:23:41;20.77;;;5.15;;
51949;SDS011;37974;53.218;6.640;2022-11-24T09:26:23;19.63;;;4.45;;
51949;SDS011;37974;53.218;6.640;2022-11-24T10:15:09;14.27;;;3.47;;
51949;SDS011;37974;53.218;6.640;2022-11-24T10:19:47;10.13;;;3.25;;
51949;SDS011;37974;53.218;6.640;2022-11-24T10:26:03;13.48;;;2.58;;
51949;SDS011;37974;53.218;6.640;2022-11-24T10:29:41;10.85;;;2.40;;
51949;SDS011;37974;53.218;6.640;2022-11-24T10:43:25;11.52;;;2.45;;
51949;SDS011;37974;53.218;6.640;2022-11-24T10:46:15;12.18;;;2.60;;
51949;SDS011;37974;53.218;6.640;2022-11-24T10:49:11;14.02;;;2.65;;
51949;SDS011;37974;53.218;6.640;2022-11-24T11:30:21;14.98;;;2.97;;
51949;SDS011;37974;53.218;6.640;2022-11-24T12:10:35;12.27;;;2.67;;
51949;SDS011;37974;53.218;6.640;2022-11-24T13:07:57;14.10;;;2.22;;
51949;SDS011;37974;53.218;6.640;2022-11-24T14:21:33;19.33;;;2.65;;
51949;SDS011;37974;53.218;6.640;2022-11-24T14:32:00;17.85;;;3.17;;
51949;SDS011;37974;53.218;6.640;2022-11-24T14:34:31;21.88;;;4.22;;
51949;SDS011;37974;53.218;6.640;2022-11-24T14:38:04;17.25;;;2.85;;
51949;SDS011;37974;53.218;6.640;2022-11-24T15:17:14;18.97;;;3.67;;
51949;SDS011;37974;53.218;6.640;2022-11-24T15:20:25;23.98;;;4.25;;
51949;SDS011;37974;53.218;6.640;2022-11-24T15:27:16;24.85;;;3.78;;
51949;SDS011;37974;53.218;6.640;2022-11-24T15:33:11;17.83;;;3.38;;
51949;SDS011;37974;53.218;6.640;2022-11-24T15:49:41;20.45;;;3.30;;
51949;SDS011;37974;53.218;6.640;2022-11-24T15:52:34;22.15;;;3.22;;
51949;SDS011;37974;53.218;6.640;2022-11-24T15:55:57;23.00;;;3.10;;
51949;SDS011;37974;53.218;6.640;2022-11-24T15:58:53;23.20;;;3.75;;
51949;SDS011;37974;53.218;6.640;2022-11-24T16:02:07;23.90;;;4.35;;
51949;SDS011;37974;53.218;6.640;2022-11-24T16:05:22;25.95;;;4.82;;
51949;SDS011;37974;53.218;6.640;2022-11-24T16:08:35;27.70;;;5.07;;
51949;SDS011;37974;53.218;6.640;2022-11-24T16:11:36;21.55;;;4.65;;
51949;SDS011;37974;53.218;6.640;2022-11-24T16:14:31;22.25;;;4.20;;
51949;SDS011;37974;53.218;6.640;2022-11-24T16:17:38;25.27;;;5.25;;
51949;SDS011;37974;53.218;6.640;2022-11-24T16:21:27;21.70;;;5.10;;
51949;SDS011;37974;53.218;6.640;2022-11-24T16:24:17;23.75;;;5.50;;
51949;SDS011;37974;53.218;6.640;2022-11-24T16:26:45;26.42;;;5.45;;
51949;SDS011;37974;53.218;6.640;2022-11-24T16:37:18;26.35;;;5.35;;
51949;SDS011;37974;53.218;6.640;2022-11-24T16:40:29;28.25;;;6.68;;
51949;SDS011;37974;53.218;6.640;2022-11-24T16:47:39;34.70;;;12.73;;
51949;SDS011;37974;53.218;6.640;2022-11-24T16:54:44;30.05;;;6.10;;
51949;SDS011;37974;53.218;6.640;2022-11-24T16:58:38;30.10;;;5.90;;
51949;SDS011;37974;53.218;6.640;2022-11-24T17:02:59;26.52;;;5.68;;
51949;SDS011;37974;53.218;6.640;2022-11-24T17:09:41;31.75;;;6.32;;
51949;SDS011;37974;53.218;6.640;2022-11-24T17:12:09;31.80;;;6.65;;
51949;SDS011;37974;53.218;6.640;2022-11-24T17:14:50;34.35;;;6.65;;
51949;SDS011;37974;53.218;6.640;2022-11-24T17:17:16;23.52;;;6.28;;
51949;SDS011;37974;53.218;6.640;2022-11-24T17:26:20;27.08;;;7.25;;
51949;SDS011;37974;53.218;6.640;2022-11-24T17:28:49;34.03;;;6.95;;
51949;SDS011;37974;53.218;6.640;2022-11-24T17:31:25;29.95;;;7.35;;
51949;SDS011;37974;53.218;6.640;2022-11-24T17:34:09;28.38;;;7.10;;
51949;SDS011;37974;53.218;6.640;2022-11-24T17:36:38;25.70;;;7.30;;
51949;SDS011;37974;53.218;6.640;2022-11-24T17:39:08;32.05;;;6.63;;
51949;SDS011;37974;53.218;6.640;2022-11-24T17:42:00;35.67;;;6.78;;
51949;SDS011;37974;53.218;6.640;2022-11-24T17:45:06;28.77;;;6.75;;
51949;SDS011;37974;53.218;6.640;2022-11-24T17:47:35;22.83;;;6.57;;
51949;SDS011;37974;53.218;6.640;2022-11-24T17:50:09;32.58;;;6.15;;
51949;SDS011;37974;53.218;6.640;2022-11-24T18:03:42;22.30;;;5.85;;
51949;SDS011;37974;53.218;6.640;2022-11-24T18:06:43;38.65;;;6.57;;
51949;SDS011;37974;53.218;6.640;2022-11-24T18:09:12;33.08;;;5.88;;
51949;SDS011;37974;53.218;6.640;2022-11-24T18:12:21;28.15;;;5.78;;
51949;SDS011;37974;53.218;6.640;2022-11-24T18:15:17;34.38;;;6.65;;
51949;SDS011;37974;53.218;6.640;2022-11-24T18:18:22;30.55;;;6.13;;
51949;SDS011;37974;53.218;6.640;2022-11-24T18:20:54;37.40;;;6.47;;
51949;SDS011;37974;53.218;6.640;2022-11-24T18:23:29;33.15;;;5.53;;
51949;SDS011;37974;53.218;6.640;2022-11-24T18:26:27;33.22;;;6.18;;
51949;SDS011;37974;53.218;6.640;2022-11-24T18:29:18;25.48;;;5.78;;
51949;SDS011;37974;53.218;6.640;2022-11-24T18:32:28;31.65;;;5.88;;
51949;SDS011;37974;53.218;6.640;2022-11-24T18:34:53;27.73;;;5.90;;
51949;SDS011;37974;53.218;6.640;2022-11-24T18:38:40;35.00;;;6.25;;
51949;SDS011;37974;53.218;6.640;2022-11-24T18:47:57;30.35;;;5.13;;
51949;SDS011;37974;53.218;6.640;2022-11-24T19:09:19;30.20;;;5.03;;
51949;SDS011;37974;53.218;6.640;2022-11-24T19:13:03;26.88;;;6.13;;
51949;SDS011;37974;53.218;6.640;2022-11-24T19:16:55;33.88;;;6.50;;
51949;SDS011;37974;53.218;6.640;2022-11-24T19:47:51;24.75;;;5.93;;
51949;SDS011;37974;53.218;6.640;2022-11-24T20:13:40;24.92;;;5.07;;
51949;SDS011;37974;53.218;6.640;2022-11-24T20:16:58;37.28;;;6.05;;
51949;SDS011;37974;53.218;6.640;2022-11-24T20:27:42;29.52;;;4.97;;
51949;SDS011;37974;53.218;6.640;2022-11-24T20:30:13;31.63;;;5.45;;
51949;SDS011;37974;53.218;6.640;2022-11-24T20:44:39;24.38;;;4.70;;
51949;SDS011;37974;53.218;6.640;2022-11-24T20:47:05;26.90;;;4.53;;
51949;SDS011;37974;53.218;6.640;2022-11-24T20:49:33;22.75;;;4.90;;
51949;SDS011;37974;53.218;6.640;2022-11-24T20:55:42;24.23;;;5.57;;
51949;SDS011;37974;53.218;6.640;2022-11-24T20:58:13;25.35;;;4.53;;
51949;SDS011;37974;53.218;6.640;2022-11-24T21:01:17;22.15;;;4.28;;
51949;SDS011;37974;53.218;6.640;2022-11-24T21:08:05;24.40;;;4.43;;
51949;SDS011;37974;53.218;6.640;2022-11-24T21:11:22;31.70;;;5.20;;
51949;SDS011;37974;53.218;6.640;2022-11-24T21:14:11;29.70;;;4.13;;
51949;SDS011;37974;53.218;6.640;2022-11-24T21:16:38;27.55;;;5.28;;
51949;SDS011;37974;53.218;6.640;2022-11-24T21:19:12;26.42;;;4.95;;
51949;SDS011;37974;53.218;6.640;2022-11-24T21:25:28;24.73;;;4.80;;
51949;SDS011;37974;53.218;6.640;2022-11-24T21:28:25;24.50;;;4.25;;
51949;SDS011;37974;53.218;6.640;2022-11-24T21:31:11;16.20;;;4.00;;
51949;SDS011;37974;53.218;6.640;2022-11-24T21:33:40;19.83;;;4.05;;
51949;SDS011;37974;53.218;6.640;2022-11-24T21:36:14;31.13;;;5.55;;
51949;SDS011;37974;53.218;6.640;2022-11-24T21:39:01;24.08;;;4.40;;
51949;SDS011;37974;53.218;6.640;2022-11-24T21:41:33;33.35;;;5.05;;
51949;SDS011;37974;53.218;6.640;2022-11-24T21:44:15;35.60;;;5.25;;
51949;SDS011;37974;53.218;6.640;2022-11-24T21:47:04;25.90;;;4.70;;
51949;SDS011;37974;53.218;6.640;2022-11-24T21:49:30;22.40;;;4.15;;
51949;SDS011;37974;53.218;6.640;2022-11-24T21:51:58;29.95;;;4.68;;
51949;SDS011;37974;53.218;6.640;2022-11-24T21:54:23;20.50;;;4.53;;
51949;SDS011;37974;53.218;6.640;2022-11-24T21:56:52;21.48;;;4.20;;
51949;SDS011;37974;53.218;6.640;2022-11-24T21:59:18;23.42;;;4.60;;
51949;SDS011;37974;53.218;6.640;2022-11-24T22:01:45;23.30;;;4.18;;
51949;SDS011;37974;53.218;6.640;2022-11-24T22:04:11;22.50;;;4.40;;
51949;SDS011;37974;53.218;6.640;2022-11-24T22:06:39;28.70;;;4.70;;
51949;SDS011;37974;53.218;6.640;2022-11-24T22:09:17;24.50;;;3.90;;
51949;SDS011;37974;53.218;6.640;2022-11-24T22:11:58;20.05;;;4.03;;
51949;SDS011;37974;53.218;6.640;2022-11-24T22:14:27;24.90;;;5.68;;
51949;SDS011;37974;53.218;6.640;2022-11-24T22:16:55;23.67;;;3.67;;
51949;SDS011;37974;53.218;6.640;2022-11-24T22:19:20;26.17;;;4.47;;
51949;SDS011;37974;53.218;6.640;2022-11-24T22:21:46;25.58;;;4.35;;
51949;SDS011;37974;53.218;6.640;2022-11-24T22:24:12;24.08;;;4.15;;
51949;SDS011;37974;53.218;6.640;2022-11-24T22:26:40;18.67;;;4.07;;
51949;SDS011;37974;53.218;6.640;2022-11-24T22:29:06;25.58;;;4.13;;
51949;SDS011;37974;53.218;6.640;2022-11-24T22:31:32;18.73;;;3.85;;
51949;SDS011;37974;53.218;6.640;2022-11-24T22:33:58;22.02;;;4.03;;
51949;SDS011;37974;53.218;6.640;2022-11-24T22:36:40;18.58;;;3.80;;
51949;SDS011;37974;53.218;6.640;2022-11-24T22:39:16;22.73;;;3.85;;
51949;SDS011;37974;53.218;6.640;2022-11-24T22:41:41;21.63;;;3.97;;
51949;SDS011;37974;53.218;6.640;2022-11-24T22:44:07;25.40;;;4.35;;
51949;SDS011;37974;53.218;6.640;2022-11-24T22:46:35;22.67;;;4.15;;
51949;SDS011;37974;53.218;6.640;2022-11-24T22:49:01;19.15;;;4.15;;
51949;SDS011;37974;53.218;6.640;2022-11-24T22:51:27;22.13;;;3.42;;
51949;SDS011;37974;53.218;6.640;2022-11-24T22:53:56;22.15;;;3.17;;
51949;SDS011;37974;53.218;6.640;2022-11-24T22:56:23;19.20;;;4.28;;
51949;SDS011;37974;53.218;6.640;2022-11-24T22:58:59;21.23;;;3.75;;
51949;SDS011;37974;53.218;6.640;2022-11-24T23:01:26;24.77;;;3.53;;
51949;SDS011;37974;53.218;6.640;2022-11-24T23:03:57;21.90;;;3.97;;
51949;SDS011;37974;53.218;6.640;2022-11-24T23:06:24;17.52;;;3.70;;
51949;SDS011;37974;53.218;6.640;2022-11-24T23:08:52;20.05;;;3.70;;
51949;SDS011;37974;53.218;6.640;2022-11-24T23:11:27;24.88;;;4.22;;
51949;SDS011;37974;53.218;6.640;2022-11-24T23:13:54;18.38;;;3.65;;
51949;SDS011;37974;53.218;6.640;2022-11-24T23:16:24;19.55;;;3.15;;
51949;SDS011;37974;53.218;6.640;2022-11-24T23:18:50;21.25;;;3.58;;
51949;SDS011;37974;53.218;6.640;2022-11-24T23:21:18;18.42;;;3.88;;
51949;SDS011;37974;53.218;6.640;2022-11-24T23:23:45;18.80;;;4.45;;
51949;SDS011;37974;53.218;6.640;2022-11-24T23:26:21;22.65;;;3.83;;
51949;SDS011;37974;53.218;6.640;2022-11-24T23:29:01;25.10;;;4.22;;
51949;SDS011;37974;53.218;6.640;2022-11-24T23:31:54;16.30;;;3.83;;
51949;SDS011;37974;53.218;6.640;2022-11-24T23:34:44;13.88;;;3.00;;
51949;SDS011;37974;53.218;6.640;2022-11-24T23:37:14;28.40;;;4.32;;
51949;SDS011;37974;53.218;6.640;2022-11-24T23:39:42;20.20;;;3.30;;
51949;SDS011;37974;53.218;6.640;2022-11-24T23:42:13;26.08;;;3.85;;
51949;SDS011;37974;53.218;6.640;2022-11-24T23:44:41;20.88;;;3.35;;
51949;SDS011;37974;53.218;6.640;2022-11-24T23:47:09;24.65;;;4.60;;
51949;SDS011;37974;53.218;6.640;2022-11-24T23:49:35;20.63;;;3.47;;
51949;SDS011;37974;53.218;6.640;2022-11-24T23:52:03;18.02;;;2.92;;
51949;SDS011;37974;53.218;6.640;2022-11-24T23:54:38;24.30;;;4.32;;
51949;SDS011;37974;53.218;6.640;2022-11-24T23:57:08;24.00;;;4.38;;
51949;SDS011;37974;53.218;6.640;2022-11-24T23:59:34;20.35;;;3.70;;
